Погода Штерменна 2 недели

Эльбасан, Албания

15 - 28 июля
  • 15июля
    Сегодня
    +21°
    +40°
    Практически безоблачно
    ВремяПогодаТемператураВлажностьДавлениеВетер, м/сВероятность осадков
    02:00Ясно и безоблачно+25°C67 %752 мм0.8 м/с2 %
    05:00Ясно и безоблачно+22°C71 %752 мм1.4 м/с2 %
    08:00Ясно и безоблачно+26°C56 %753 мм0.2 м/с2 %
    11:00Ясно и безоблачно+33°C43 %753 мм1.5 м/с2 %
    14:00Практически безоблачно+39°C28 %752 мм1.2 м/с2 %
    17:00Практически безоблачно+39°C32 %751 мм2.3 м/с2 %
    20:00Ясно и безоблачно+34°C64 %752 мм0.8 м/с2 %
    23:00Ясно и безоблачно+28°C78 %752 мм1.0 м/с2 %
  • 16июля
    Вторник
    +22°
    +40°
    Небольшая облачность
    ВремяПогодаТемператураВлажностьДавлениеВетер, м/сВероятность осадков
    02:00Ясно и безоблачно+26°C76 %752 мм1.3 м/с2 %
    05:00Ясно и безоблачно+22°C70 %752 мм0.9 м/с2 %
    08:00Ясно и безоблачно+26°C58 %753 мм0.2 м/с2 %
    11:00Ясно и безоблачно+33°C44 %752 мм0.9 м/с2 %
    14:00Небольшая облачность+39°C28 %752 мм0.8 м/с2 %
    17:00Небольшая облачность+38°C38 %751 мм3.5 м/с4 %
    20:00Ясно и безоблачно+34°C65 %752 мм1.0 м/с2 %
    23:00Ясно и безоблачно+29°C71 %752 мм0.7 м/с2 %
  • 17июля
    Среда
    +21°
    +41°
    Небольшая облачность
    ВремяПогодаТемператураВлажностьДавлениеВетер, м/сВероятность осадков
    02:00Ясно и безоблачно+26°C74 %752 мм1.1 м/с2 %
    05:00Ясно и безоблачно+23°C73 %752 мм1.5 м/с2 %
    08:00Ясно и безоблачно+27°C56 %753 мм0.6 м/с2 %
    11:00Ясно и безоблачно+34°C39 %753 мм0.9 м/с2 %
    14:00Небольшая облачность+40°C27 %753 мм2.0 м/с18 %
    17:00Небольшая облачность+38°C31 %753 мм2.4 м/с13 %
    20:00Ясно и безоблачно+34°C62 %753 мм0.8 м/с2 %
    23:00Ясно и безоблачно+28°C72 %754 мм0.7 м/с2 %
  • 18июля
    Четверг
    +24°
    +39°
    Облачно с прояснениями
    ВремяПогодаТемператураВлажностьДавлениеВетер, м/сВероятность осадков
    02:00Ясно и безоблачно+26°C67 %753 мм1.2 м/с2 %
    05:00Ясно и безоблачно+23°C66 %753 мм1.9 м/с2 %
    08:00Ясно и безоблачно+27°C54 %754 мм1.6 м/с2 %
    11:00Ясно и безоблачно+37°C26 %754 мм0.9 м/с2 %
    14:00Облачно с прояснениями+39°C32 %754 мм4.1 м/с15 %
    17:00Небольшая облачность+38°C28 %753 мм1.5 м/с16 %
    20:00Небольшая облачность+35°C54 %754 мм1.3 м/с2 %
    23:00Ясно и безоблачно+28°C62 %754 мм1.6 м/с2 %
  • 19июля
    Пятница
    +23°
    +41°
    Практически безоблачно
    ВремяПогодаТемператураВлажностьДавлениеВетер, м/сВероятность осадков
    02:00Ясно и безоблачно+27°C62 %753 мм2.3 м/с2 %
    05:00Ясно и безоблачно+25°C61 %753 мм2.7 м/с2 %
    08:00Ясно и безоблачно+28°C52 %753 мм2.1 м/с2 %
    11:00Ясно и безоблачно+36°C30 %753 мм1.0 м/с2 %
    14:00Практически безоблачно+41°C26 %752 мм1.5 м/с7 %
    17:00Практически безоблачно+39°C32 %751 мм3.0 м/с15 %
    20:00Ясно и безоблачно+35°C51 %752 мм2.0 м/с4 %
    23:00Ясно и безоблачно+29°C64 %752 мм1.4 м/с2 %
Мы используем cookies
Соглашаюсь